sensor_id;sensor_type;location;lat;lon;timestamp;pressure;altitude;pressure_sealevel;temperature;humidity
49044;BME280;34860;48.066;14.124;2022-08-19T00:02:04;96022.25;;;20.24;62.95
49044;BME280;34860;48.066;14.124;2022-08-19T00:04:52;96033.31;;;20.16;63.06
49044;BME280;34860;48.066;14.124;2022-08-19T00:07:42;96027.44;;;20.08;63.36
49044;BME280;34860;48.066;14.124;2022-08-19T00:10:33;96030.75;;;20.07;63.30
49044;BME280;34860;48.066;14.124;2022-08-19T00:13:23;96036.44;;;20.01;63.44
49044;BME280;34860;48.066;14.124;2022-08-19T00:16:13;96029.53;;;19.91;63.67
49044;BME280;34860;48.066;14.124;2022-08-19T00:19:03;96024.16;;;19.93;63.63
49044;BME280;34860;48.066;14.124;2022-08-19T00:21:54;96022.34;;;20.01;63.35
49044;BME280;34860;48.066;14.124;2022-08-19T00:24:45;96013.59;;;20.10;62.80
49044;BME280;34860;48.066;14.124;2022-08-19T00:27:38;96018.72;;;20.12;62.99
49044;BME280;34860;48.066;14.124;2022-08-19T00:30:29;96014.13;;;20.09;62.92
49044;BME280;34860;48.066;14.124;2022-08-19T00:33:21;96030.53;;;20.10;62.90
49044;BME280;34860;48.066;14.124;2022-08-19T00:36:12;96016.13;;;20.14;62.77
49044;BME280;34860;48.066;14.124;2022-08-19T00:39:04;96026.41;;;20.17;62.98
49044;BME280;34860;48.066;14.124;2022-08-19T00:41:55;96032.53;;;20.21;62.89
49044;BME280;34860;48.066;14.124;2022-08-19T00:44:47;96036.63;;;20.26;62.83
49044;BME280;34860;48.066;14.124;2022-08-19T00:47:45;96049.94;;;20.31;62.86
49044;BME280;34860;48.066;14.124;2022-08-19T00:50:34;96063.00;;;20.34;62.94
49044;BME280;34860;48.066;14.124;2022-08-19T00:53:26;96058.13;;;20.40;63.00
49044;BME280;34860;48.066;14.124;2022-08-19T00:56:18;96054.78;;;20.42;63.04
49044;BME280;34860;48.066;14.124;2022-08-19T00:59:10;96059.38;;;20.45;63.10
49044;BME280;34860;48.066;14.124;2022-08-19T01:02:05;96062.22;;;20.45;63.18
49044;BME280;34860;48.066;14.124;2022-08-19T01:04:55;96062.97;;;20.45;63.12
49044;BME280;34860;48.066;14.124;2022-08-19T01:07:45;96062.97;;;20.45;63.39
49044;BME280;34860;48.066;14.124;2022-08-19T01:10:39;96059.38;;;20.45;63.31
49044;BME280;34860;48.066;14.124;2022-08-19T01:13:32;96052.22;;;20.44;63.34
49044;BME280;34860;48.066;14.124;2022-08-19T01:16:26;96050.16;;;20.44;63.46
49044;BME280;34860;48.066;14.124;2022-08-19T01:19:24;96033.75;;;20.43;63.25
49044;BME280;34860;48.066;14.124;2022-08-19T01:22:26;96048.09;;;20.45;63.26
49044;BME280;34860;48.066;14.124;2022-08-19T01:25:26;96039.09;;;20.46;63.33
49044;BME280;34860;48.066;14.124;2022-08-19T01:28:21;96042.44;;;20.50;63.29
49044;BME280;34860;48.066;14.124;2022-08-19T01:31:14;96065.25;;;20.53;63.39
49044;BME280;34860;48.066;14.124;2022-08-19T01:34:07;96072.97;;;20.52;63.48
49044;BME280;34860;48.066;14.124;2022-08-19T01:37:00;96072.47;;;20.48;63.80
49044;BME280;34860;48.066;14.124;2022-08-19T01:39:58;96068.09;;;20.47;63.84
49044;BME280;34860;48.066;14.124;2022-08-19T01:42:51;96055.28;;;20.46;63.94
49044;BME280;34860;48.066;14.124;2022-08-19T01:59:19;96032.28;;;20.25;63.67
49044;BME280;34860;48.066;14.124;2022-08-19T02:02:12;96032.50;;;20.27;63.61
49044;BME280;34860;48.066;14.124;2022-08-19T02:05:04;96030.19;;;20.31;63.72
49044;BME280;34860;48.066;14.124;2022-08-19T02:07:56;96015.53;;;20.32;63.81
49044;BME280;34860;48.066;14.124;2022-08-19T02:10:47;96005.03;;;20.33;63.77
49044;BME280;34860;48.066;14.124;2022-08-19T02:13:40;96012.72;;;20.32;63.80
49044;BME280;34860;48.066;14.124;2022-08-19T02:16:33;96028.41;;;20.28;64.04
49044;BME280;34860;48.066;14.124;2022-08-19T02:19:25;96038.44;;;20.23;64.09
49044;BME280;34860;48.066;14.124;2022-08-19T02:22:16;96044.31;;;20.20;64.17
49044;BME280;34860;48.066;14.124;2022-08-19T02:25:08;96020.47;;;20.15;64.37
49044;BME280;34860;48.066;14.124;2022-08-19T02:28:00;95998.69;;;20.10;64.33
49044;BME280;34860;48.066;14.124;2022-08-19T02:30:50;96026.66;;;20.08;64.41
49044;BME280;34860;48.066;14.124;2022-08-19T02:33:41;96055.91;;;20.10;64.47
49044;BME280;34860;48.066;14.124;2022-08-19T02:36:30;96064.06;;;20.20;64.30
49044;BME280;34860;48.066;14.124;2022-08-19T02:39:19;96053.06;;;20.22;64.38
49044;BME280;34860;48.066;14.124;2022-08-19T02:42:07;96051.28;;;20.19;64.41
49044;BME280;34860;48.066;14.124;2022-08-19T02:44:56;96050.47;;;20.18;64.60
49044;BME280;34860;48.066;14.124;2022-08-19T02:47:45;96059.47;;;20.17;64.54
49044;BME280;34860;48.066;14.124;2022-08-19T02:50:37;96069.75;;;20.14;64.80
49044;BME280;34860;48.066;14.124;2022-08-19T02:53:27;96061.25;;;20.20;64.72
49044;BME280;34860;48.066;14.124;2022-08-19T02:56:16;96053.06;;;20.22;64.54
49044;BME280;34860;48.066;14.124;2022-08-19T02:59:07;96053.56;;;20.14;64.69
49044;BME280;34860;48.066;14.124;2022-08-19T03:01:58;96062.81;;;20.04;64.87
49044;BME280;34860;48.066;14.124;2022-08-19T03:04:47;96060.53;;;19.96;65.01
49044;BME280;34860;48.066;14.124;2022-08-19T03:07:37;96068.50;;;19.92;65.20
49044;BME280;34860;48.066;14.124;2022-08-19T03:10:26;96077.22;;;19.83;65.15
49044;BME280;34860;48.066;14.124;2022-08-19T03:13:17;96083.38;;;19.76;65.39
49044;BME280;34860;48.066;14.124;2022-08-19T03:16:06;96078.72;;;19.67;65.41
49044;BME280;34860;48.066;14.124;2022-08-19T03:18:56;96081.31;;;19.59;65.77
49044;BME280;34860;48.066;14.124;2022-08-19T03:21:47;96086.94;;;19.54;65.58
49044;BME280;34860;48.066;14.124;2022-08-19T03:24:38;96103.34;;;19.50;65.61
49044;BME280;34860;48.066;14.124;2022-08-19T03:27:27;96107.94;;;19.47;65.52
49044;BME280;34860;48.066;14.124;2022-08-19T03:30:19;96101.03;;;19.48;65.41
49044;BME280;34860;48.066;14.124;2022-08-19T03:33:09;96094.88;;;19.44;65.51
49044;BME280;34860;48.066;14.124;2022-08-19T03:36:05;96078.47;;;19.42;65.43
49044;BME280;34860;48.066;14.124;2022-08-19T03:38:57;96087.44;;;19.41;65.44
49044;BME280;34860;48.066;14.124;2022-08-19T03:41:51;96103.31;;;19.38;65.64
49044;BME280;34860;48.066;14.124;2022-08-19T03:44:40;96092.56;;;19.31;65.67
49044;BME280;34860;48.066;14.124;2022-08-19T03:47:31;96090.50;;;19.26;65.58
49044;BME280;34860;48.066;14.124;2022-08-19T03:50:21;96091.25;;;19.21;65.84
49044;BME280;34860;48.066;14.124;2022-08-19T03:53:11;96092.53;;;19.20;65.60
49044;BME280;34860;48.066;14.124;2022-08-19T03:56:01;96106.63;;;19.20;65.58
49044;BME280;34860;48.066;14.124;2022-08-19T03:58:52;96116.59;;;19.21;65.75
49044;BME280;34860;48.066;14.124;2022-08-19T04:01:41;96123.03;;;19.21;65.82
49044;BME280;34860;48.066;14.124;2022-08-19T04:04:30;96139.91;;;19.21;65.72
49044;BME280;34860;48.066;14.124;2022-08-19T04:07:19;96175.03;;;19.26;65.74
49044;BME280;34860;48.066;14.124;2022-08-19T04:10:09;96177.38;;;19.39;65.60
49044;BME280;34860;48.066;14.124;2022-08-19T04:12:58;96184.03;;;19.47;65.53
49044;BME280;34860;48.066;14.124;2022-08-19T04:15:48;96183.28;;;19.52;65.39
49044;BME280;34860;48.066;14.124;2022-08-19T04:18:38;96202.25;;;19.57;65.46
49044;BME280;34860;48.066;14.124;2022-08-19T04:21:27;96209.44;;;19.58;65.48
49044;BME280;34860;48.066;14.124;2022-08-19T04:24:17;96220.19;;;19.60;65.41
49044;BME280;34860;48.066;14.124;2022-08-19T04:27:07;96222.50;;;19.62;65.64
49044;BME280;34860;48.066;14.124;2022-08-19T04:29:56;96215.09;;;19.64;65.50
49044;BME280;34860;48.066;14.124;2022-08-19T04:32:46;96208.16;;;19.65;65.54
49044;BME280;34860;48.066;14.124;2022-08-19T04:35:37;96207.13;;;19.63;65.68
49044;BME280;34860;48.066;14.124;2022-08-19T04:38:26;96213.78;;;19.59;65.87
49044;BME280;34860;48.066;14.124;2022-08-19T04:41:15;96210.94;;;19.54;66.04
49044;BME280;34860;48.066;14.124;2022-08-19T04:44:22;96193.25;;;19.48;66.18
49044;BME280;34860;48.066;14.124;2022-08-19T04:47:11;96171.22;;;19.40;66.22
49044;BME280;34860;48.066;14.124;2022-08-19T04:50:01;96147.63;;;19.32;66.63
49044;BME280;34860;48.066;14.124;2022-08-19T04:52:50;96144.53;;;19.24;66.86
49044;BME280;34860;48.066;14.124;2022-08-19T04:55:41;96163.69;;;19.09;67.08
49044;BME280;34860;48.066;14.124;2022-08-19T04:58:30;96148.78;;;18.86;67.38
49044;BME280;34860;48.066;14.124;2022-08-19T05:01:21;96148.97;;;18.77;67.72
49044;BME280;34860;48.066;14.124;2022-08-19T05:04:11;96148.97;;;18.77;67.73
49044;BME280;34860;48.066;14.124;2022-08-19T05:07:02;96151.78;;;18.82;67.54
49044;BME280;34860;48.066;14.124;2022-08-19T05:09:51;96151.84;;;18.88;67.43
49044;BME280;34860;48.066;14.124;2022-08-19T05:12:40;96165.44;;;18.95;67.20
49044;BME280;34860;48.066;14.124;2022-08-19T05:15:29;96184.16;;;19.04;67.31
49044;BME280;34860;48.066;14.124;2022-08-19T05:18:17;96184.97;;;19.16;66.99
49044;BME280;34860;48.066;14.124;2022-08-19T05:21:33;96185.00;;;19.27;66.64
49044;BME280;34860;48.066;14.124;2022-08-19T05:24:40;96166.34;;;19.35;66.56
49044;BME280;34860;48.066;14.124;2022-08-19T05:27:37;96147.63;;;19.38;66.87
49044;BME280;34860;48.066;14.124;2022-08-19T05:30:26;96131.75;;;19.29;67.17
49044;BME280;34860;48.066;14.124;2022-08-19T05:33:20;96120.19;;;19.21;67.36
49044;BME280;34860;48.066;14.124;2022-08-19T05:36:08;96111.50;;;19.19;67.61
49044;BME280;34860;48.066;14.124;2022-08-19T05:38:57;96109.44;;;19.20;67.74
49044;BME280;34860;48.066;14.124;2022-08-19T05:41:50;96099.19;;;19.22;67.43
49044;BME280;34860;48.066;14.124;2022-08-19T05:44:42;96113.31;;;19.34;67.57
49044;BME280;34860;48.066;14.124;2022-08-19T05:47:32;96136.91;;;19.53;67.22
49044;BME280;34860;48.066;14.124;2022-08-19T05:50:23;96130.00;;;19.71;66.65
49044;BME280;34860;48.066;14.124;2022-08-19T05:53:13;96115.16;;;19.82;66.55
49044;BME280;34860;48.066;14.124;2022-08-19T05:56:04;96128.25;;;19.85;66.67
49044;BME280;34860;48.066;14.124;2022-08-19T05:58:55;96125.16;;;20.00;66.31
49044;BME280;34860;48.066;14.124;2022-08-19T06:01:48;96127.69;;;20.15;66.38
49044;BME280;34860;48.066;14.124;2022-08-19T06:04:38;96127.44;;;20.19;66.37
49044;BME280;34860;48.066;14.124;2022-08-19T06:07:29;96125.91;;;20.06;66.41
49044;BME280;34860;48.066;14.124;2022-08-19T06:10:18;96125.16;;;20.00;66.86
49044;BME280;34860;48.066;14.124;2022-08-19T06:13:07;96117.19;;;20.10;66.67
49044;BME280;34860;48.066;14.124;2022-08-19T06:15:58;96115.38;;;20.24;66.60
49044;BME280;34860;48.066;14.124;2022-08-19T06:18:46;96111.75;;;20.40;66.15
49044;BME280;34860;48.066;14.124;2022-08-19T06:21:37;96107.09;;;20.48;66.01
49044;BME280;34860;48.066;14.124;2022-08-19T06:24:28;96120.16;;;20.57;65.79
49044;BME280;34860;48.066;14.124;2022-08-19T06:27:17;96118.34;;;20.60;65.82
49044;BME280;34860;48.066;14.124;2022-08-19T06:30:07;96133.00;;;20.64;65.84
49044;BME280;34860;48.066;14.124;2022-08-19T06:32:58;96141.72;;;20.60;66.14
49044;BME280;34860;48.066;14.124;2022-08-19T06:35:46;96166.88;;;20.53;66.34
49044;BME280;34860;48.066;14.124;2022-08-19T06:38:35;96155.59;;;20.53;66.27
49044;BME280;34860;48.066;14.124;2022-08-19T06:41:24;96162.75;;;20.59;66.25
49044;BME280;34860;48.066;14.124;2022-08-19T06:44:14;96157.38;;;20.67;65.93
49044;BME280;34860;48.066;14.124;2022-08-19T06:47:05;96166.09;;;20.75;65.86
49044;BME280;34860;48.066;14.124;2022-08-19T06:49:56;96174.31;;;20.73;66.16
49044;BME280;34860;48.066;14.124;2022-08-19T06:52:50;96176.59;;;20.80;66.07
49044;BME280;34860;48.066;14.124;2022-08-19T06:55:40;96167.31;;;20.85;66.20
49044;BME280;34860;48.066;14.124;2022-08-19T06:58:31;96167.28;;;20.96;66.28
49044;BME280;34860;48.066;14.124;2022-08-19T07:01:20;96159.31;;;21.06;66.25
49044;BME280;34860;48.066;14.124;2022-08-19T07:04:09;96178.81;;;21.10;66.45
49044;BME280;34860;48.066;14.124;2022-08-19T07:07:02;96189.81;;;21.19;66.43
49044;BME280;34860;48.066;14.124;2022-08-19T07:09:53;96193.41;;;21.14;66.61
49044;BME280;34860;48.066;14.124;2022-08-19T07:12:42;96203.69;;;21.17;66.63
49044;BME280;34860;48.066;14.124;2022-08-19T07:15:31;96211.16;;;21.14;66.83
49044;BME280;34860;48.066;14.124;2022-08-19T07:18:20;96210.88;;;21.18;66.92
49044;BME280;34860;48.066;14.124;2022-08-19T07:21:13;96216.50;;;21.23;66.75
49044;BME280;34860;48.066;14.124;2022-08-19T07:24:04;96201.59;;;21.23;66.88
49044;BME280;34860;48.066;14.124;2022-08-19T07:26:55;96197.50;;;21.18;67.09
49044;BME280;34860;48.066;14.124;2022-08-19T07:29:51;96192.94;;;21.10;67.47
49044;BME280;34860;48.066;14.124;2022-08-19T07:32:40;96183.47;;;21.01;67.75
49044;BME280;34860;48.066;14.124;2022-08-19T07:35:30;96184.47;;;21.04;67.63
49044;BME280;34860;48.066;14.124;2022-08-19T07:38:19;96172.34;;;21.15;67.39
49044;BME280;34860;48.066;14.124;2022-08-19T07:41:11;96166.13;;;21.22;67.37
49044;BME280;34860;48.066;14.124;2022-08-19T07:44:00;96157.41;;;21.26;67.27
49044;BME280;34860;48.066;14.124;2022-08-19T07:46:52;96144.03;;;21.26;67.33
49044;BME280;34860;48.066;14.124;2022-08-19T07:49:42;96145.81;;;21.29;67.34
49044;BME280;34860;48.066;14.124;2022-08-19T07:52:31;96158.09;;;21.37;67.36
49044;BME280;34860;48.066;14.124;2022-08-19T07:55:24;96164.25;;;21.41;67.39
49044;BME280;34860;48.066;14.124;2022-08-19T07:58:19;96148.81;;;21.48;67.29
49044;BME280;34860;48.066;14.124;2022-08-19T08:01:11;96136.41;;;21.57;67.15
49044;BME280;34860;48.066;14.124;2022-08-19T08:04:01;96146.50;;;21.52;67.17
49044;BME280;34860;48.066;14.124;2022-08-19T08:07:08;96123.81;;;21.58;67.23
49044;BME280;34860;48.066;14.124;2022-08-19T08:10:14;96123.50;;;21.67;66.95
49044;BME280;34860;48.066;14.124;2022-08-19T08:13:03;96124.06;;;21.60;67.02
49044;BME280;34860;48.066;14.124;2022-08-19T08:15:54;96122.97;;;21.69;67.32
49044;BME280;34860;48.066;14.124;2022-08-19T08:18:43;96123.22;;;21.71;67.35
49044;BME280;34860;48.066;14.124;2022-08-19T08:21:33;96128.47;;;21.86;67.31
49044;BME280;34860;48.066;14.124;2022-08-19T08:24:22;96115.88;;;22.17;66.60
49044;BME280;34860;48.066;14.124;2022-08-19T08:27:12;96094.50;;;22.46;66.09
49044;BME280;34860;48.066;14.124;2022-08-19T08:30:08;96104.66;;;22.61;65.80
49044;BME280;34860;48.066;14.124;2022-08-19T08:33:03;96112.75;;;22.70;65.89
49044;BME280;34860;48.066;14.124;2022-08-19T08:35:54;96096.94;;;22.80;65.84
49044;BME280;34860;48.066;14.124;2022-08-19T08:38:46;96089.28;;;22.75;66.19
49044;BME280;34860;48.066;14.124;2022-08-19T08:41:44;96089.66;;;22.66;66.62
49044;BME280;34860;48.066;14.124;2022-08-19T08:44:45;96089.28;;;22.75;66.59
49044;BME280;34860;48.066;14.124;2022-08-19T08:47:51;96094.03;;;22.86;66.34
49044;BME280;34860;48.066;14.124;2022-08-19T08:50:51;96093.59;;;22.82;66.54
49044;BME280;34860;48.066;14.124;2022-08-19T08:53:49;96097.22;;;22.77;66.91
49044;BME280;34860;48.066;14.124;2022-08-19T08:56:44;96108.28;;;22.80;67.02
49044;BME280;34860;48.066;14.124;2022-08-19T08:59:38;96101.09;;;22.98;66.51
49044;BME280;34860;48.066;14.124;2022-08-19T09:02:32;96105.63;;;23.26;65.94
49044;BME280;34860;48.066;14.124;2022-08-19T09:05:30;96093.44;;;23.50;65.49
49044;BME280;34860;48.066;14.124;2022-08-19T09:08:40;96103.25;;;23.49;65.75
49044;BME280;34860;48.066;14.124;2022-08-19T09:11:38;96106.25;;;23.38;65.88
49044;BME280;34860;48.066;14.124;2022-08-19T09:14:37;96119.81;;;23.26;66.33
49044;BME280;34860;48.066;14.124;2022-08-19T09:17:38;96124.41;;;23.10;66.58
49044;BME280;34860;48.066;14.124;2022-08-19T09:20:28;96118.41;;;22.95;67.07
49044;BME280;34860;48.066;14.124;2022-08-19T09:23:19;96123.81;;;22.93;67.21
49044;BME280;34860;48.066;14.124;2022-08-19T09:26:12;96132.22;;;23.04;67.00
49044;BME280;34860;48.066;14.124;2022-08-19T09:29:03;96139.38;;;23.11;66.92
49044;BME280;34860;48.066;14.124;2022-08-19T09:31:54;96154.22;;;23.17;66.78
49044;BME280;34860;48.066;14.124;2022-08-19T09:34:44;96148.47;;;23.23;66.70
49044;BME280;34860;48.066;14.124;2022-08-19T09:37:36;96144.94;;;23.35;66.40
49044;BME280;34860;48.066;14.124;2022-08-19T09:40:26;96144.88;;;23.41;66.23
49044;BME280;34860;48.066;14.124;2022-08-19T09:43:18;96154.63;;;23.46;65.97
49044;BME280;34860;48.066;14.124;2022-08-19T09:46:08;96144.09;;;23.60;65.68
49044;BME280;34860;48.066;14.124;2022-08-19T09:48:59;96144.16;;;23.73;65.40
49044;BME280;34860;48.066;14.124;2022-08-19T09:51:50;96148.38;;;23.85;65.25
49044;BME280;34860;48.066;14.124;2022-08-19T09:54:40;96138.34;;;23.84;65.06
49044;BME280;34860;48.066;14.124;2022-08-19T09:57:30;96136.88;;;24.10;64.81
49044;BME280;34860;48.066;14.124;2022-08-19T10:00:22;96137.50;;;24.35;64.27
49044;BME280;34860;48.066;14.124;2022-08-19T10:03:13;96136.66;;;24.67;63.54
49044;BME280;34860;48.066;14.124;2022-08-19T10:06:04;96145.97;;;24.94;63.13
49044;BME280;34860;48.066;14.124;2022-08-19T10:08:54;96140.38;;;24.89;62.98
49044;BME280;34860;48.066;14.124;2022-08-19T10:11:45;96131.09;;;24.75;63.48
49044;BME280;34860;48.066;14.124;2022-08-19T10:14:40;96129.34;;;24.58;63.78
49044;BME280;34860;48.066;14.124;2022-08-19T10:17:31;96122.75;;;24.50;63.95
49044;BME280;34860;48.066;14.124;2022-08-19T10:20:20;96118.59;;;24.51;64.05
49044;BME280;34860;48.066;14.124;2022-08-19T10:23:11;96112.03;;;24.29;64.62
49044;BME280;34860;48.066;14.124;2022-08-19T10:26:06;96101.66;;;24.32;64.23
49044;BME280;34860;48.066;14.124;2022-08-19T10:28:59;96104.06;;;24.55;63.77
49044;BME280;34860;48.066;14.124;2022-08-19T10:31:52;96096.31;;;24.82;63.01
49044;BME280;34860;48.066;14.124;2022-08-19T10:34:46;96092.69;;;25.08;62.41
49044;BME280;34860;48.066;14.124;2022-08-19T10:37:43;96085.00;;;25.30;61.89
49044;BME280;34860;48.066;14.124;2022-08-19T10:40:35;96081.13;;;25.27;61.92
49044;BME280;34860;48.066;14.124;2022-08-19T10:43:27;96072.75;;;25.22;62.39
49044;BME280;34860;48.066;14.124;2022-08-19T10:46:21;96076.81;;;25.13;62.58
49044;BME280;34860;48.066;14.124;2022-08-19T10:49:15;96082.28;;;25.11;62.50
49044;BME280;34860;48.066;14.124;2022-08-19T10:52:09;96087.63;;;25.14;62.51
49044;BME280;34860;48.066;14.124;2022-08-19T10:55:19;96084.47;;;25.05;62.84
49044;BME280;34860;48.066;14.124;2022-08-19T10:58:27;96081.78;;;24.99;62.79
49044;BME280;34860;48.066;14.124;2022-08-19T11:01:18;96093.78;;;24.92;62.71
49044;BME280;34860;48.066;14.124;2022-08-19T11:04:08;96080.63;;;25.29;62.42
49044;BME280;34860;48.066;14.124;2022-08-19T11:06:58;96095.47;;;25.90;60.59
49044;BME280;34860;48.066;14.124;2022-08-19T11:09:49;96088.88;;;25.96;60.80
49044;BME280;34860;48.066;14.124;2022-08-19T11:12:38;96087.34;;;25.73;61.20
49044;BME280;34860;48.066;14.124;2022-08-19T11:15:28;96085.66;;;25.78;61.46
49044;BME280;34860;48.066;14.124;2022-08-19T11:18:19;96080.13;;;25.93;60.61
49044;BME280;34860;48.066;14.124;2022-08-19T11:21:11;96087.50;;;26.10;60.29
49044;BME280;34860;48.066;14.124;2022-08-19T11:24:03;96088.47;;;26.13;60.29
49044;BME280;34860;48.066;14.124;2022-08-19T11:27:01;96094.06;;;26.26;60.12
49044;BME280;34860;48.066;14.124;2022-08-19T11:29:51;96082.59;;;26.10;60.21
49044;BME280;34860;48.066;14.124;2022-08-19T11:32:41;96084.00;;;25.83;60.75
49044;BME280;34860;48.066;14.124;2022-08-19T11:35:39;96092.09;;;25.58;61.38
49044;BME280;34860;48.066;14.124;2022-08-19T11:38:31;96102.19;;;25.59;61.72
49044;BME280;34860;48.066;14.124;2022-08-19T11:41:22;96090.69;;;25.85;60.54
49044;BME280;34860;48.066;14.124;2022-08-19T11:44:14;96082.88;;;25.99;60.13
49044;BME280;34860;48.066;14.124;2022-08-19T11:47:04;96076.09;;;26.10;59.79
49044;BME280;34860;48.066;14.124;2022-08-19T11:49:55;96080.28;;;26.09;60.20
49044;BME280;34860;48.066;14.124;2022-08-19T11:52:45;96074.88;;;25.98;60.35
49044;BME280;34860;48.066;14.124;2022-08-19T11:55:38;96089.88;;;25.98;60.71
49044;BME280;34860;48.066;14.124;2022-08-19T11:58:27;96101.28;;;25.98;60.24
49044;BME280;34860;48.066;14.124;2022-08-19T12:01:20;96086.03;;;25.96;60.40
49044;BME280;34860;48.066;14.124;2022-08-19T12:04:09;96079.16;;;25.91;60.49
49044;BME280;34860;48.066;14.124;2022-08-19T12:06:58;96065.13;;;25.93;60.48
49044;BME280;34860;48.066;14.124;2022-08-19T12:09:47;96052.78;;;25.90;60.34
49044;BME280;34860;48.066;14.124;2022-08-19T12:12:36;96045.91;;;25.86;60.70
49044;BME280;34860;48.066;14.124;2022-08-19T12:15:27;96040.34;;;25.80;60.86
49044;BME280;34860;48.066;14.124;2022-08-19T12:18:22;96064.78;;;25.76;60.92
49044;BME280;34860;48.066;14.124;2022-08-19T12:21:14;96077.84;;;25.71;61.08
49044;BME280;34860;48.066;14.124;2022-08-19T12:24:07;96075.41;;;25.75;60.44
49044;BME280;34860;48.066;14.124;2022-08-19T12:26:56;96067.84;;;25.78;60.48
49044;BME280;34860;48.066;14.124;2022-08-19T12:29:45;96065.91;;;25.72;60.70
49044;BME280;34860;48.066;14.124;2022-08-19T12:32:34;96063.47;;;25.77;60.70
49044;BME280;34860;48.066;14.124;2022-08-19T12:35:25;96059.22;;;25.91;60.43
49044;BME280;34860;48.066;14.124;2022-08-19T12:38:14;96073.06;;;25.87;60.39
49044;BME280;34860;48.066;14.124;2022-08-19T12:41:03;96075.13;;;25.86;60.35
49044;BME280;34860;48.066;14.124;2022-08-19T12:43:54;96075.81;;;26.50;59.04
49044;BME280;34860;48.066;14.124;2022-08-19T12:46:43;96069.69;;;27.71;56.25
49044;BME280;34860;48.066;14.124;2022-08-19T12:49:32;96066.25;;;27.72;55.92
49044;BME280;34860;48.066;14.124;2022-08-19T12:52:26;96056.34;;;27.58;56.55
49044;BME280;34860;48.066;14.124;2022-08-19T12:55:15;96053.81;;;27.31;57.19
49044;BME280;34860;48.066;14.124;2022-08-19T12:58:05;96063.41;;;27.05;57.95
49044;BME280;34860;48.066;14.124;2022-08-19T13:00:54;96067.38;;;27.02;58.22
49044;BME280;34860;48.066;14.124;2022-08-19T13:03:45;96066.41;;;26.99;58.01
49044;BME280;34860;48.066;14.124;2022-08-19T13:06:34;96072.78;;;26.77;58.93
49044;BME280;34860;48.066;14.124;2022-08-19T13:09:24;96061.84;;;26.60;59.04
49044;BME280;34860;48.066;14.124;2022-08-19T13:12:14;96062.50;;;26.45;59.00
49044;BME280;34860;48.066;14.124;2022-08-19T13:15:03;96068.13;;;26.37;59.29
49044;BME280;34860;48.066;14.124;2022-08-19T13:17:53;96052.94;;;26.35;59.06
49044;BME280;34860;48.066;14.124;2022-08-19T13:20:43;96064.78;;;26.75;58.22
49044;BME280;34860;48.066;14.124;2022-08-19T13:23:32;96066.97;;;26.90;57.32
49044;BME280;34860;48.066;14.124;2022-08-19T13:26:22;96064.59;;;26.73;58.17
49044;BME280;34860;48.066;14.124;2022-08-19T13:29:11;96061.47;;;26.63;58.33
49044;BME280;34860;48.066;14.124;2022-08-19T13:32:18;96059.13;;;26.54;58.54
49044;BME280;34860;48.066;14.124;2022-08-19T13:35:24;96056.22;;;26.46;58.34
49044;BME280;34860;48.066;14.124;2022-08-19T13:38:14;96057.59;;;26.53;58.52
49044;BME280;34860;48.066;14.124;2022-08-19T13:41:05;96045.09;;;26.56;57.97
49044;BME280;34860;48.066;14.124;2022-08-19T13:43:57;96036.16;;;26.52;58.26
49044;BME280;34860;48.066;14.124;2022-08-19T13:46:48;96027.59;;;26.52;58.26
49044;BME280;34860;48.066;14.124;2022-08-19T13:49:41;96024.28;;;27.21;56.99
49044;BME280;34860;48.066;14.124;2022-08-19T13:52:32;96029.59;;;28.94;53.81
49044;BME280;34860;48.066;14.124;2022-08-19T13:55:21;96029.75;;;31.70;48.81
49044;BME280;34860;48.066;14.124;2022-08-19T13:58:11;96018.56;;;32.78;47.08
49044;BME280;34860;48.066;14.124;2022-08-19T14:01:02;96019.56;;;32.43;48.12
49044;BME280;34860;48.066;14.124;2022-08-19T14:03:51;96013.34;;;33.35;47.37
49044;BME280;34860;48.066;14.124;2022-08-19T14:06:41;96004.25;;;35.52;43.98
49044;BME280;34860;48.066;14.124;2022-08-19T14:09:33;96018.44;;;34.07;46.77
49044;BME280;34860;48.066;14.124;2022-08-19T14:12:22;96015.31;;;32.44;50.60
49044;BME280;34860;48.066;14.124;2022-08-19T14:15:11;96000.44;;;31.00;53.45
49044;BME280;34860;48.066;14.124;2022-08-19T14:18:02;95997.06;;;29.81;55.90
49044;BME280;34860;48.066;14.124;2022-08-19T14:20:51;96007.09;;;28.91;57.61
49044;BME280;34860;48.066;14.124;2022-08-19T14:23:40;96002.09;;;28.35;58.41
49044;BME280;34860;48.066;14.124;2022-08-19T14:26:28;96007.81;;;27.89;58.81
49044;BME280;34860;48.066;14.124;2022-08-19T14:29:18;96018.13;;;27.69;58.80
49044;BME280;34860;48.066;14.124;2022-08-19T14:32:07;96031.06;;;27.62;58.27
49044;BME280;34860;48.066;14.124;2022-08-19T14:34:57;96022.84;;;27.43;58.35
49044;BME280;34860;48.066;14.124;2022-08-19T14:37:46;96029.03;;;27.18;58.78
49044;BME280;34860;48.066;14.124;2022-08-19T14:40:35;96028.97;;;26.95;58.56
49044;BME280;34860;48.066;14.124;2022-08-19T14:43:24;96009.88;;;26.75;58.63
49044;BME280;34860;48.066;14.124;2022-08-19T14:46:14;96012.97;;;26.56;58.43
49044;BME280;34860;48.066;14.124;2022-08-19T14:49:03;96014.38;;;26.34;58.66
49044;BME280;34860;48.066;14.124;2022-08-19T14:51:53;96015.41;;;26.15;58.35
49044;BME280;34860;48.066;14.124;2022-08-19T14:54:42;96037.63;;;25.96;58.34
49044;BME280;34860;48.066;14.124;2022-08-19T14:57:31;96053.03;;;25.24;58.91
49044;BME280;34860;48.066;14.124;2022-08-19T15:00:21;96042.44;;;24.36;59.58
49044;BME280;34860;48.066;14.124;2022-08-19T15:03:10;96045.13;;;23.56;60.53
49044;BME280;34860;48.066;14.124;2022-08-19T15:06:01;96061.34;;;22.85;61.05
49044;BME280;34860;48.066;14.124;2022-08-19T15:08:51;96065.56;;;22.04;61.71
49044;BME280;34860;48.066;14.124;2022-08-19T15:11:40;96079.00;;;21.32;62.35